Time;durP1;ratioP1;P1;durP2;ratioP2;P2;SDS_P1;SDS_P2;PMS_P1;PMS_P2;Temp;Humidity;BMP_temperature;BMP_pressure;BME280_temperature;BME280_humidity;BME280_pressure;Samples;Min_cycle;Max_cycle;Signal;HPM_P1;HPM_P2
2021/01/26 00:01:09;;;;;;;;;;;23.60;37.10;;;;;;1553661;75;1928;-64
2021/01/26 00:03:11;;;;;;;;;;;23.60;37.10;;;;;;1552729;75;729;-64
2021/01/26 00:05:13;;;;;;;;;;;23.60;37.00;;;;;;1521286;76;735;-63
2021/01/26 00:07:15;;;;;;;;;;;23.50;37.40;;;;;;1522329;77;1103;-63
2021/01/26 00:09:17;;;;;;;;;;;23.60;37.00;;;;;;1522332;78;809;-64
2021/01/26 00:11:18;;;;;;;;;;;23.60;37.10;;;;;;1546302;75;711;-63
2021/01/26 00:13:21;;;;;;;;;;;23.60;37.00;;;;;;1527939;76;710;-64
2021/01/26 00:15:23;;;;;;;;;;;23.60;36.90;;;;;;1530250;76;779;-64
2021/01/26 00:17:24;;;;;;;;;;;23.60;36.90;;;;;;1556465;75;1082;-64
2021/01/26 00:19:26;;;;;;;;;;;23.70;37.10;;;;;;1551338;75;700;-64
2021/01/26 00:21:28;;;;;;;;;;;23.60;37.10;;;;;;1550883;75;1947;-64
2021/01/26 00:23:30;;;;;;;;;;;23.50;37.10;;;;;;1560446;75;770;-64
2021/01/26 00:25:36;;;;;;;;;;;23.50;36.80;;;;;;1506538;78;776;-64
2021/01/26 00:27:37;;;;;;;;;;;23.60;36.80;;;;;;1545114;75;1154;-63
2021/01/26 00:29:39;;;;;;;;;;;23.60;36.90;;;;;;1553118;75;703;-64
2021/01/26 00:31:41;;;;;;;;;;;23.60;36.90;;;;;;1516047;77;725;-63
2021/01/26 00:33:43;;;;;;;;;;;23.60;37.10;;;;;;1553643;75;823;-63
2021/01/26 00:35:45;;;;;;;;;;;23.60;36.90;;;;;;1546045;76;682;-65
2021/01/26 00:37:47;;;;;;;;;;;23.60;37.00;;;;;;1554740;75;1130;-64
2021/01/26 00:39:49;;;;;;;;;;;23.60;36.90;;;;;;1549191;75;1043;-65
2021/01/26 00:41:51;;;;;;;;;;;23.60;36.90;;;;;;1555939;75;1931;-65
2021/01/26 00:43:52;;;;;;;;;;;23.60;36.80;;;;;;1522936;76;774;-64
2021/01/26 00:45:54;;;;;;;;;;;23.60;36.80;;;;;;1521133;76;750;-64
2021/01/26 00:47:56;;;;;;;;;;;23.60;36.70;;;;;;1511438;77;1129;-63
2021/01/26 00:49:58;;;;;;;;;;;23.60;36.70;;;;;;1548552;75;610;-63
2021/01/26 00:52:00;;;;;;;;;;;23.60;36.70;;;;;;1553121;75;766;-63
2021/01/26 00:54:02;;;;;;;;;;;23.60;36.60;;;;;;1549114;75;731;-62
2021/01/26 00:56:04;;;;;;;;;;;23.60;36.60;;;;;;1545535;75;805;-63
2021/01/26 00:58:06;;;;;;;;;;;23.60;36.60;;;;;;1546155;75;1130;-63
2021/01/26 01:00:09;;;;;;;;;;;23.50;36.70;;;;;;1532411;75;741;-64
2021/01/26 01:02:11;;;;;;;;;;;23.60;36.60;;;;;;1561443;75;1950;-63
2021/01/26 01:04:13;;;;;;;;;;;23.60;36.60;;;;;;1539791;76;714;-63
2021/01/26 01:06:15;;;;;;;;;;;23.60;36.60;;;;;;1529891;76;677;-63
2021/01/26 01:08:17;;;;;;;;;;;23.50;36.60;;;;;;1503400;77;1161;-63
2021/01/26 01:10:21;;;;;;;;;;;23.50;36.70;;;;;;1546935;75;690;-63
2021/01/26 01:12:23;;;;;;;;;;;23.50;36.70;;;;;;1537309;75;723;-63
2021/01/26 01:14:26;;;;;;;;;;;23.50;36.90;;;;;;1554450;75;739;-64
2021/01/26 01:16:28;;;;;;;;;;;23.50;37.00;;;;;;1521863;76;1093;-66
2021/01/26 01:18:30;;;;;;;;;;;23.50;37.10;;;;;;1510922;77;1143;-65
2021/01/26 01:20:31;;;;;;;;;;;23.50;37.10;;;;;;1554266;76;787;-63
2021/01/26 01:22:33;;;;;;;;;;;23.40;37.10;;;;;;1547467;75;1931;-63
2021/01/26 01:24:35;;;;;;;;;;;23.40;37.10;;;;;;1554179;75;687;-64
2021/01/26 01:26:37;;;;;;;;;;;23.40;37.10;;;;;;1549381;75;710;-65
2021/01/26 01:28:39;;;;;;;;;;;23.40;37.30;;;;;;1520088;77;1155;-63
2021/01/26 01:30:41;;;;;;;;;;;23.30;37.20;;;;;;1538821;75;733;-62
2021/01/26 01:32:43;;;;;;;;;;;23.40;37.10;;;;;;1556061;75;765;-63
2021/01/26 01:34:44;;;;;;;;;;;23.40;37.00;;;;;;1512690;77;681;-64
2021/01/26 01:36:46;;;;;;;;;;;23.40;36.80;;;;;;1517560;77;778;-62
2021/01/26 01:38:48;;;;;;;;;;;23.50;36.90;;;;;;1517534;77;1120;-62
2021/01/26 01:40:52;;;;;;;;;;;23.40;36.70;;;;;;1544544;75;770;-63
2021/01/26 01:42:54;;;;;;;;;;;23.50;37.00;;;;;;1537606;75;1944;-63
2021/01/26 01:44:55;;;;;;;;;;;23.50;36.90;;;;;;1546596;75;782;-63
2021/01/26 01:46:59;;;;;;;;;;;23.50;36.80;;;;;;1555836;75;687;-64
2021/01/26 01:49:02;;;;;;;;;;;23.40;36.90;;;;;;1503846;77;1065;-63
2021/01/26 01:51:05;;;;;;;;;;;23.40;36.80;;;;;;1545695;75;786;-61
2021/01/26 01:53:15;;;;;;;;;;;23.40;36.80;;;;;;1542744;75;727;-61
2021/01/26 01:55:18;;;;;;;;;;;23.50;37.00;;;;;;1549306;75;720;-62
2021/01/26 01:57:24;;;;;;;;;;;23.40;37.10;;;;;;1534517;75;1098;-61
2021/01/26 01:59:28;;;;;;;;;;;23.40;37.00;;;;;;1542292;75;1856;-61
2021/01/26 02:01:30;;;;;;;;;;;23.50;37.10;;;;;;1546521;75;1905;-62
2021/01/26 02:03:32;;;;;;;;;;;23.40;36.90;;;;;;1547094;75;693;-61
2021/01/26 02:05:34;;;;;;;;;;;23.40;37.00;;;;;;1553474;75;692;-62
2021/01/26 02:07:35;;;;;;;;;;;23.40;37.10;;;;;;1536975;75;1150;-60
2021/01/26 02:09:38;;;;;;;;;;;23.40;37.10;;;;;;1546944;75;725;-62
2021/01/26 02:11:39;;;;;;;;;;;23.40;37.10;;;;;;1535082;76;731;-59
2021/01/26 02:13:41;;;;;;;;;;;23.30;37.10;;;;;;1529216;76;771;-60
2021/01/26 02:15:43;;;;;;;;;;;23.40;37.00;;;;;;1528459;77;793;-61
2021/01/26 02:17:47;;;;;;;;;;;23.40;37.10;;;;;;1530370;75;1174;-62
2021/01/26 02:20:06;;;;;;;;;;;23.40;37.20;;;;;;1526487;76;753;-62
2021/01/26 02:22:26;;;;;;;;;;;23.30;37.10;;;;;;1517583;77;1942;-62
2021/01/26 02:24:30;;;;;;;;;;;23.30;37.20;;;;;;1545088;75;955;-62
2021/01/26 02:26:50;;;;;;;;;;;23.30;37.30;;;;;;1553557;75;706;-61
2021/01/26 02:28:56;;;;;;;;;;;23.20;37.20;;;;;;1506033;77;1105;-59
2021/01/26 02:31:12;;;;;;;;;;;23.20;37.20;;;;;;1545542;75;713;-61
2021/01/26 02:33:15;;;;;;;;;;;23.30;37.30;;;;;;1488558;76;1142;-62
2021/01/26 02:35:35;;;;;;;;;;;23.40;37.30;;;;;;1539871;75;1601;-63
2021/01/26 02:37:57;;;;;;;;;;;23.40;37.40;;;;;;1547719;75;1134;-60
2021/01/26 02:40:19;;;;;;;;;;;23.30;37.30;;;;;;1512606;77;771;-61
2021/01/26 02:42:28;;;;;;;;;;;23.40;37.20;;;;;;1554488;75;1931;-62
2021/01/26 02:44:35;;;;;;;;;;;23.50;37.40;;;;;;1546766;75;740;-62
2021/01/26 02:46:50;;;;;;;;;;;23.50;37.30;;;;;;1554252;75;1053;-60
2021/01/26 02:49:00;;;;;;;;;;;23.50;37.20;;;;;;1553579;75;1132;-61
2021/01/26 02:51:20;;;;;;;;;;;23.50;37.30;;;;;;1512297;77;756;-63
2021/01/26 02:53:32;;;;;;;;;;;23.50;37.10;;;;;;1553811;76;928;-59
2021/01/26 02:55:42;;;;;;;;;;;23.50;37.10;;;;;;1548632;76;730;-62
2021/01/26 02:57:45;;;;;;;;;;;23.60;37.10;;;;;;1550705;75;1141;-62
2021/01/26 02:59:58;;;;;;;;;;;23.60;36.90;;;;;;1530315;75;1540;-62
2021/01/26 03:02:04;;;;;;;;;;;23.60;36.80;;;;;;1508776;77;1925;-63
2021/01/26 03:04:07;;;;;;;;;;;23.60;36.90;;;;;;1538407;75;1141;-63
2021/01/26 03:06:17;;;;;;;;;;;23.60;37.00;;;;;;1549509;75;1674;-61
2021/01/26 03:08:21;;;;;;;;;;;23.60;37.10;;;;;;1550489;75;1126;-62
2021/01/26 03:10:23;;;;;;;;;;;23.60;36.90;;;;;;1547798;75;897;-61
2021/01/26 03:12:30;;;;;;;;;;;23.50;36.90;;;;;;1548752;75;742;-60
2021/01/26 03:14:33;;;;;;;;;;;23.60;36.80;;;;;;1499778;77;802;-62
2021/01/26 03:16:34;;;;;;;;;;;23.60;36.70;;;;;;1536891;75;679;-62
2021/01/26 03:18:38;;;;;;;;;;;23.60;36.70;;;;;;1528758;77;1253;-61
2021/01/26 03:20:44;;;;;;;;;;;23.60;36.70;;;;;;1507493;77;1698;-60
2021/01/26 03:22:47;;;;;;;;;;;23.60;36.60;;;;;;1545869;75;1925;-60
2021/01/26 03:24:50;;;;;;;;;;;23.60;36.70;;;;;;1546052;75;678;-61
2021/01/26 03:26:52;;;;;;;;;;;23.60;36.70;;;;;;1531009;76;787;-60
2021/01/26 03:28:55;;;;;;;;;;;23.60;36.70;;;;;;1542085;76;1118;-61
2021/01/26 03:30:58;;;;;;;;;;;23.60;36.80;;;;;;1527502;76;754;-61
2021/01/26 03:33:01;;;;;;;;;;;23.60;36.80;;;;;;1518045;77;669;-60
2021/01/26 03:35:03;;;;;;;;;;;23.60;37.00;;;;;;1529040;76;691;-60
2021/01/26 03:37:05;;;;;;;;;;;23.60;37.00;;;;;;1533444;76;773;-60
2021/01/26 03:39:08;;;;;;;;;;;23.70;37.10;;;;;;1541978;76;735;-61
2021/01/26 03:41:09;;;;;;;;;;;23.60;37.30;;;;;;1528649;76;733;-60
2021/01/26 03:43:11;;;;;;;;;;;23.60;37.20;;;;;;1510286;77;1948;-62
2021/01/26 03:45:13;;;;;;;;;;;23.60;37.30;;;;;;1546349;75;664;-60
2021/01/26 03:47:20;;;;;;;;;;;23.60;37.40;;;;;;1543429;75;1176;-63
2021/01/26 03:49:23;;;;;;;;;;;23.60;37.30;;;;;;1544594;75;1767;-62
2021/01/26 03:51:43;;;;;;;;;;;23.60;37.60;;;;;;1498718;77;718;-62
2021/01/26 03:53:59;;;;;;;;;;;23.50;37.60;;;;;;1546547;75;723;-61
2021/01/26 03:56:14;;;;;;;;;;;23.50;37.70;;;;;;1501603;77;1168;-61
2021/01/26 03:58:34;;;;;;;;;;;23.40;38.20;;;;;;1505598;77;1164;-60
2021/01/26 04:00:37;;;;;;;;;;;23.30;38.50;;;;;;1528662;76;700;-61
2021/01/26 04:02:56;;;;;;;;;;;23.20;38.50;;;;;;1499028;77;1905;-62
2021/01/26 04:05:06;;;;;;;;;;;23.20;38.80;;;;;;1538831;75;646;-62
2021/01/26 04:07:09;;;;;;;;;;;23.20;38.80;;;;;;1550521;75;1137;-62
2021/01/26 04:09:12;;;;;;;;;;;23.10;38.90;;;;;;1502848;77;1720;-61
2021/01/26 04:11:18;;;;;;;;;;;23.10;39.10;;;;;;1546666;75;727;-62
2021/01/26 04:13:22;;;;;;;;;;;23.10;39.00;;;;;;1546139;75;925;-60
2021/01/26 04:15:25;;;;;;;;;;;23.10;39.20;;;;;;1526741;76;691;-61
2021/01/26 04:17:35;;;;;;;;;;;23.10;38.90;;;;;;1533878;75;1178;-62
2021/01/26 04:19:47;;;;;;;;;;;23.10;39.00;;;;;;1546067;75;1557;-60
2021/01/26 04:21:49;;;;;;;;;;;23.10;39.30;;;;;;1551846;75;1971;-62
2021/01/26 04:23:55;;;;;;;;;;;23.10;39.20;;;;;;1555237;75;684;-61
2021/01/26 04:26:05;;;;;;;;;;;23.10;38.90;;;;;;1499188;77;1071;-61
2021/01/26 04:28:07;;;;;;;;;;;23.20;38.90;;;;;;1545172;75;1770;-60
2021/01/26 04:30:10;;;;;;;;;;;23.10;38.80;;;;;;1540217;75;734;-61
2021/01/26 04:32:11;;;;;;;;;;;23.20;38.50;;;;;;1507797;77;653;-62
2021/01/26 04:34:13;;;;;;;;;;;23.20;38.40;;;;;;1540867;75;697;-63
2021/01/26 04:36:16;;;;;;;;;;;23.30;38.50;;;;;;1542304;75;732;-62
2021/01/26 04:38:18;;;;;;;;;;;23.40;38.40;;;;;;1497072;77;1187;-62
2021/01/26 04:40:20;;;;;;;;;;;23.40;38.30;;;;;;1548182;75;805;-62
2021/01/26 04:42:22;;;;;;;;;;;23.40;38.20;;;;;;1543354;75;1950;-62
2021/01/26 04:44:32;;;;;;;;;;;23.40;38.20;;;;;;1547852;75;723;-62
2021/01/26 04:46:41;;;;;;;;;;;23.40;38.10;;;;;;1547321;75;661;-63
2021/01/26 04:48:48;;;;;;;;;;;23.40;38.20;;;;;;1502091;77;1795;-62
2021/01/26 04:50:57;;;;;;;;;;;23.40;38.10;;;;;;1543506;75;1750;-61
2021/01/26 04:53:16;;;;;;;;;;;23.40;38.10;;;;;;1546298;75;1481;-62
2021/01/26 04:55:22;;;;;;;;;;;23.40;38.10;;;;;;1518721;77;730;-61
2021/01/26 04:57:35;;;;;;;;;;;23.40;38.10;;;;;;1529158;76;1163;-61
2021/01/26 04:59:41;;;;;;;;;;;23.40;37.90;;;;;;1553769;75;787;-62
2021/01/26 05:02:03;;;;;;;;;;;23.40;38.00;;;;;;1541919;75;1842;-64
2021/01/26 05:04:06;;;;;;;;;;;23.40;38.40;;;;;;1555099;75;1807;-63
2021/01/26 05:06:10;;;;;;;;;;;23.40;38.10;;;;;;1500283;77;702;-63
2021/01/26 05:08:15;;;;;;;;;;;23.40;38.10;;;;;;1549300;75;1083;-62
2021/01/26 05:10:21;;;;;;;;;;;23.40;38.20;;;;;;1512909;77;653;-64
2021/01/26 05:12:23;;;;;;;;;;;23.40;38.20;;;;;;1518391;76;1950;-62
2021/01/26 05:14:27;;;;;;;;;;;23.40;38.10;;;;;;1534625;76;735;-63
2021/01/26 05:16:48;;;;;;;;;;;23.40;38.10;;;;;;1542080;75;763;-63
2021/01/26 05:19:08;;;;;;;;;;;23.40;38.10;;;;;;1526827;77;2028;-62
2021/01/26 05:21:12;;;;;;;;;;;23.40;38.10;;;;;;1552717;75;676;-61
2021/01/26 05:23:18;;;;;;;;;;;23.40;38.10;;;;;;1528029;76;1932;-60
2021/01/26 05:25:21;;;;;;;;;;;23.40;38.30;;;;;;1549252;75;709;-63
2021/01/26 05:27:23;;;;;;;;;;;23.40;38.10;;;;;;1539642;76;1145;-62
2021/01/26 05:29:24;;;;;;;;;;;23.40;38.00;;;;;;1500484;77;713;-61
2021/01/26 05:31:28;;;;;;;;;;;23.50;38.30;;;;;;1545013;75;692;-62
2021/01/26 05:33:29;;;;;;;;;;;23.50;38.30;;;;;;1496390;78;785;-61
2021/01/26 05:35:31;;;;;;;;;;;23.40;38.10;;;;;;1537605;75;700;-62
2021/01/26 05:37:33;;;;;;;;;;;23.50;38.40;;;;;;1540769;75;1139;-61
2021/01/26 05:39:40;;;;;;;;;;;23.40;38.20;;;;;;1529128;77;687;-59
2021/01/26 05:41:41;;;;;;;;;;;23.50;38.20;;;;;;1529372;77;712;-63
2021/01/26 05:43:43;;;;;;;;;;;23.50;38.10;;;;;;1511113;77;1937;-63
2021/01/26 05:45:46;;;;;;;;;;;23.50;38.00;;;;;;1546795;75;720;-63
2021/01/26 05:47:49;;;;;;;;;;;23.50;38.10;;;;;;1530089;76;1148;-63
2021/01/26 05:49:51;;;;;;;;;;;23.40;38.00;;;;;;1554831;75;1121;-63
2021/01/26 05:51:53;;;;;;;;;;;23.50;38.20;;;;;;1528685;76;697;-62
2021/01/26 05:54:02;;;;;;;;;;;23.50;38.40;;;;;;1528933;77;680;-63
2021/01/26 05:56:13;;;;;;;;;;;23.40;38.10;;;;;;1510399;77;1560;-62
2021/01/26 05:58:12;;;;;;;;;;;23.40;38.40;;;;;;1555012;75;1675;-63
2021/01/26 06:00:16;;;;;;;;;;;23.40;38.30;;;;;;1533172;76;974;-63
2021/01/26 06:02:19;;;;;;;;;;;23.40;38.40;;;;;;1552801;75;1644;-62
2021/01/26 06:04:23;;;;;;;;;;;23.40;38.30;;;;;;1552897;75;1918;-62
2021/01/26 06:06:24;;;;;;;;;;;23.40;38.20;;;;;;1508065;77;1104;-63
2021/01/26 06:08:26;;;;;;;;;;;23.40;38.00;;;;;;1551321;75;1163;-62
2021/01/26 06:10:30;;;;;;;;;;;23.40;37.90;;;;;;1565761;75;704;-63
2021/01/26 06:12:32;;;;;;;;;;;23.40;38.00;;;;;;1513031;78;804;-62
2021/01/26 06:14:34;;;;;;;;;;;23.40;37.90;;;;;;1554749;75;569;-62
2021/01/26 06:16:36;;;;;;;;;;;23.40;37.80;;;;;;1525174;76;773;-63
2021/01/26 06:18:38;;;;;;;;;;;23.40;37.80;;;;;;1549253;75;1174;-63
2021/01/26 06:20:40;;;;;;;;;;;23.50;37.90;;;;;;1545887;75;759;-63
2021/01/26 06:22:42;;;;;;;;;;;23.50;38.10;;;;;;1547854;75;1995;-64
2021/01/26 06:24:44;;;;;;;;;;;23.50;37.80;;;;;;1529902;75;715;-64
2021/01/26 06:27:04;;;;;;;;;;;23.60;37.90;;;;;;1545383;75;686;-64
2021/01/26 06:29:07;;;;;;;;;;;23.50;38.00;;;;;;1534272;75;1138;-63
2021/01/26 06:31:11;;;;;;;;;;;23.50;37.80;;;;;;1545380;75;765;-65
2021/01/26 06:33:23;;;;;;;;;;;23.60;37.90;;;;;;1550315;75;1815;-64
2021/01/26 06:35:34;;;;;;;;;;;23.50;37.70;;;;;;1548630;75;1563;-60
2021/01/26 06:37:50;;;;;;;;;;;23.60;37.80;;;;;;1553966;75;1137;-62
2021/01/26 06:40:10;;;;;;;;;;;23.60;37.70;;;;;;1527858;76;1842;-61
2021/01/26 06:42:22;;;;;;;;;;;23.60;37.60;;;;;;1553876;75;699;-61
2021/01/26 06:44:26;;;;;;;;;;;23.60;37.50;;;;;;1514709;78;1945;-62
2021/01/26 06:46:45;;;;;;;;;;;23.60;37.40;;;;;;1550860;75;773;-63
2021/01/26 06:49:02;;;;;;;;;;;23.60;37.60;;;;;;1547859;75;1087;-62
2021/01/26 06:51:06;;;;;;;;;;;23.60;37.60;;;;;;1549472;75;774;-61
2021/01/26 06:53:26;;;;;;;;;;;23.60;37.80;;;;;;1530569;76;696;-62
2021/01/26 06:55:47;;;;;;;;;;;23.50;37.80;;;;;;1501694;78;731;-62
2021/01/26 06:58:03;;;;;;;;;;;23.50;37.70;;;;;;1552461;75;1181;-63
2021/01/26 07:00:09;;;;;;;;;;;23.50;37.80;;;;;;1512552;78;817;-63
2021/01/26 07:02:22;;;;;;;;;;;23.50;38.00;;;;;;1554514;75;754;-63
2021/01/26 07:04:25;;;;;;;;;;;23.60;38.10;;;;;;1551412;75;1935;-64
2021/01/26 07:06:35;;;;;;;;;;;23.50;38.00;;;;;;1544481;75;800;-64
2021/01/26 07:08:38;;;;;;;;;;;23.50;38.10;;;;;;1542461;75;1146;-63
2021/01/26 07:10:57;;;;;;;;;;;23.50;37.90;;;;;;1507498;77;1630;-63
2021/01/26 07:13:03;;;;;;;;;;;23.50;37.90;;;;;;1514638;77;1739;-64
2021/01/26 07:15:10;;;;;;;;;;;23.50;38.00;;;;;;1551584;75;698;-63
2021/01/26 07:17:12;;;;;;;;;;;23.50;38.00;;;;;;1555643;75;1131;-63
2021/01/26 07:19:32;;;;;;;;;;;23.60;37.80;;;;;;1557159;75;750;-63
2021/01/26 07:21:50;;;;;;;;;;;23.60;37.70;;;;;;1556422;75;713;-62
2021/01/26 07:23:57;;;;;;;;;;;23.60;37.80;;;;;;1556195;75;1935;-63
2021/01/26 07:26:06;;;;;;;;;;;23.60;37.70;;;;;;1552186;75;1777;-61
2021/01/26 07:28:11;;;;;;;;;;;23.60;37.70;;;;;;1518641;75;1152;-62
2021/01/26 07:30:20;;;;;;;;;;;23.60;37.70;;;;;;1553621;75;757;-61
2021/01/26 07:32:27;;;;;;;;;;;23.70;37.80;;;;;;1529929;76;798;-62
2021/01/26 07:34:30;;;;;;;;;;;23.70;37.80;;;;;;1536935;76;763;-63
2021/01/26 07:36:36;;;;;;;;;;;23.70;37.80;;;;;;1515698;77;1866;-63
2021/01/26 07:38:39;;;;;;;;;;;23.70;37.80;;;;;;1517951;77;1134;-63
2021/01/26 07:41:00;;;;;;;;;;;23.60;37.60;;;;;;1546912;75;776;-62
2021/01/26 07:43:10;;;;;;;;;;;23.60;37.70;;;;;;1547125;75;1920;-63
2021/01/26 07:45:13;;;;;;;;;;;23.60;38.00;;;;;;1535927;75;799;-62
2021/01/26 07:47:17;;;;;;;;;;;23.60;37.90;;;;;;1555148;75;1160;-64
2021/01/26 07:49:20;;;;;;;;;;;23.60;37.80;;;;;;1506329;77;708;-63
2021/01/26 07:51:24;;;;;;;;;;;23.60;37.90;;;;;;1549492;75;692;-63
2021/01/26 07:53:27;;;;;;;;;;;23.60;37.80;;;;;;1528710;76;689;-63
2021/01/26 07:55:31;;;;;;;;;;;23.60;38.00;;;;;;1549290;75;776;-64
2021/01/26 07:57:34;;;;;;;;;;;23.60;38.10;;;;;;1547190;75;1693;-64
2021/01/26 07:59:40;;;;;;;;;;;23.60;38.00;;;;;;1507275;77;1893;-63
2021/01/26 08:01:47;;;;;;;;;;;23.60;38.30;;;;;;1550921;75;698;-65
2021/01/26 08:03:49;;;;;;;;;;;23.60;38.00;;;;;;1534621;76;1936;-64
2021/01/26 08:05:52;;;;;;;;;;;23.60;38.10;;;;;;1548923;75;711;-61
2021/01/26 08:07:54;;;;;;;;;;;23.60;37.90;;;;;;1546196;75;1167;-61
2021/01/26 08:09:56;;;;;;;;;;;23.60;37.40;;;;;;1551554;76;1148;-61
2021/01/26 08:11:59;;;;;;;;;;;23.60;37.00;;;;;;1570099;73;656;-62
2021/01/26 08:14:03;;;;;;;;;;;23.70;36.70;;;;;;1573474;73;718;-64
2021/01/26 08:16:12;;;;;;;;;;;23.70;36.50;;;;;;1587981;73;728;-65
2021/01/26 08:18:16;;;;;;;;;;;23.70;36.10;;;;;;1582906;74;1120;-63
2021/01/26 08:20:23;;;;;;;;;;;23.70;36.30;;;;;;1582949;74;1721;-62
2021/01/26 08:22:34;;;;;;;;;;;23.70;36.20;;;;;;1586819;73;717;-63
2021/01/26 08:24:36;;;;;;;;;;;23.70;36.10;;;;;;1582326;73;1913;-62
2021/01/26 08:26:38;;;;;;;;;;;23.60;36.00;;;;;;1574580;73;752;-61
2021/01/26 08:28:42;;;;;;;;;;;23.60;35.90;;;;;;1579511;73;1154;-60
2021/01/26 08:30:48;;;;;;;;;;;23.60;35.70;;;;;;1582670;73;710;-62
2021/01/26 08:33:08;;;;;;;;;;;23.60;35.70;;;;;;1580710;73;701;-64
2021/01/26 08:35:11;;;;;;;;;;;23.60;35.70;;;;;;1588490;73;595;-65
2021/01/26 08:37:16;;;;;;;;;;;23.60;36.20;;;;;;1587531;73;1168;-63
2021/01/26 08:39:23;;;;;;;;;;;23.60;36.30;;;;;;1590208;73;663;-62
2021/01/26 08:41:41;;;;;;;;;;;23.60;36.30;;;;;;1594304;73;737;-59
2021/01/26 08:43:44;;;;;;;;;;;23.60;36.10;;;;;;1591011;73;1929;-60
2021/01/26 08:45:47;;;;;;;;;;;23.70;35.70;;;;;;1583431;73;656;-60
2021/01/26 08:47:58;;;;;;;;;;;23.70;35.40;;;;;;1589475;73;1151;-61
2021/01/26 08:50:18;;;;;;;;;;;23.80;35.00;;;;;;1581961;74;721;-61
2021/01/26 08:52:27;;;;;;;;;;;23.80;35.00;;;;;;1576948;73;721;-62
2021/01/26 08:54:42;;;;;;;;;;;23.70;34.90;;;;;;1575760;74;1376;-61
2021/01/26 08:56:44;;;;;;;;;;;23.70;34.80;;;;;;1581452;73;695;-62
2021/01/26 08:58:47;;;;;;;;;;;23.70;34.70;;;;;;1591433;74;1108;-62
2021/01/26 09:00:49;;;;;;;;;;;23.70;34.60;;;;;;1590701;73;806;-60
2021/01/26 09:02:51;;;;;;;;;;;23.70;34.50;;;;;;1586930;73;762;-60
2021/01/26 09:04:53;;;;;;;;;;;23.80;34.40;;;;;;1584824;73;1933;-62
2021/01/26 09:06:55;;;;;;;;;;;23.80;34.40;;;;;;1569516;73;769;-59
2021/01/26 09:08:57;;;;;;;;;;;23.70;34.40;;;;;;1578020;73;1092;-62
2021/01/26 09:10:59;;;;;;;;;;;23.70;34.30;;;;;;1590410;73;763;-63
2021/01/26 09:13:19;;;;;;;;;;;23.70;34.30;;;;;;1582679;73;800;-62
2021/01/26 09:15:21;;;;;;;;;;;23.70;34.20;;;;;;1590532;73;781;-62
2021/01/26 09:17:35;;;;;;;;;;;23.70;34.20;;;;;;1590717;73;1161;-62
2021/01/26 09:19:44;;;;;;;;;;;23.70;34.20;;;;;;1580975;73;705;-63
2021/01/26 09:21:46;;;;;;;;;;;23.60;34.10;;;;;;1590103;73;719;-61
2021/01/26 09:23:48;;;;;;;;;;;23.60;33.70;;;;;;1585643;73;1957;-61
2021/01/26 09:25:50;;;;;;;;;;;23.60;33.80;;;;;;1591405;73;747;-60
2021/01/26 09:27:58;;;;;;;;;;;23.50;33.70;;;;;;1589443;73;1127;-64
2021/01/26 09:30:09;;;;;;;;;;;23.40;34.20;;;;;;1583973;73;752;-61
2021/01/26 09:32:11;;;;;;;;;;;23.50;34.00;;;;;;1585778;73;713;-62
2021/01/26 09:34:13;;;;;;;;;;;23.40;33.90;;;;;;1585444;74;788;-64
2021/01/26 09:36:16;;;;;;;;;;;23.40;34.30;;;;;;1585523;73;868;-64
2021/01/26 09:38:22;;;;;;;;;;;23.50;34.40;;;;;;1587755;74;1156;-61
2021/01/26 09:40:24;;;;;;;;;;;23.50;34.20;;;;;;1587099;73;721;-59
2021/01/26 09:42:26;;;;;;;;;;;23.50;34.30;;;;;;1591547;73;718;-61
2021/01/26 09:44:28;;;;;;;;;;;23.40;34.20;;;;;;1591670;73;1921;-60
2021/01/26 09:46:34;;;;;;;;;;;23.40;34.10;;;;;;1591219;74;691;-61
2021/01/26 09:48:38;;;;;;;;;;;23.50;34.00;;;;;;1580166;73;1680;-61
2021/01/26 09:50:40;;;;;;;;;;;23.50;34.20;;;;;;1590027;73;1663;-64
2021/01/26 09:52:42;;;;;;;;;;;23.50;34.00;;;;;;1579225;74;742;-62
2021/01/26 09:54:44;;;;;;;;;;;23.50;34.00;;;;;;1579885;73;794;-62
2021/01/26 09:56:45;;;;;;;;;;;23.40;34.00;;;;;;1588618;73;732;-61
2021/01/26 09:58:49;;;;;;;;;;;23.40;34.00;;;;;;1576476;73;1136;-63
2021/01/26 10:00:51;;;;;;;;;;;23.40;33.60;;;;;;1582835;73;837;-61
2021/01/26 10:02:54;;;;;;;;;;;23.40;34.10;;;;;;1591277;73;705;-62
2021/01/26 10:04:55;;;;;;;;;;;23.50;34.00;;;;;;1591583;73;1935;-60
2021/01/26 10:07:04;;;;;;;;;;;23.40;34.10;;;;;;1591379;73;709;-62
2021/01/26 10:09:17;;;;;;;;;;;23.50;34.20;;;;;;1583463;73;1468;-61
2021/01/26 10:11:22;;;;;;;;;;;23.40;33.90;;;;;;1582680;73;702;-62
2021/01/26 10:13:31;;;;;;;;;;;23.40;34.00;;;;;;1582319;73;1806;-61
2021/01/26 10:15:39;;;;;;;;;;;23.50;34.30;;;;;;1588030;73;769;-61
2021/01/26 10:17:47;;;;;;;;;;;23.50;33.90;;;;;;1576449;73;1700;-60
2021/01/26 10:19:49;;;;;;;;;;;23.50;33.40;;;;;;1589797;73;1638;-62
2021/01/26 10:21:51;;;;;;;;;;;23.50;33.30;;;;;;1558469;75;1231;-62
2021/01/26 10:24:01;;;;;;;;;;;23.50;33.10;;;;;;1566205;73;1950;-62
2021/01/26 10:26:10;;;;;;;;;;;23.60;33.10;;;;;;1575549;73;725;-62
2021/01/26 10:28:13;;;;;;;;;;;23.60;32.80;;;;;;1572350;73;1617;-62
2021/01/26 10:30:19;;;;;;;;;;;23.60;32.80;;;;;;1568517;74;696;-63
2021/01/26 10:32:41;;;;;;;;;;;23.50;32.80;;;;;;1584721;74;719;-60
2021/01/26 10:34:44;;;;;;;;;;;23.60;32.80;;;;;;1588193;73;759;-64
2021/01/26 10:36:46;;;;;;;;;;;23.60;32.70;;;;;;1581217;74;752;-63
2021/01/26 10:38:48;;;;;;;;;;;23.60;32.70;;;;;;1580400;74;1168;-63
2021/01/26 10:40:51;;;;;;;;;;;23.60;32.70;;;;;;1579719;74;802;-63
2021/01/26 10:42:58;;;;;;;;;;;23.60;32.60;;;;;;1577047;74;1419;-61
2021/01/26 10:45:00;;;;;;;;;;;23.60;32.50;;;;;;1589973;73;1929;-61
2021/01/26 10:47:01;;;;;;;;;;;23.60;32.30;;;;;;1590804;74;745;-61
2021/01/26 10:49:10;;;;;;;;;;;23.50;31.60;;;;;;1530291;76;1217;-61
2021/01/26 10:51:13;;;;;;;;;;;23.50;30.60;;;;;;1585350;73;600;-60
2021/01/26 10:53:19;;;;;;;;;;;23.40;29.80;;;;;;1591312;73;734;-61
2021/01/26 10:55:21;;;;;;;;;;;23.30;29.10;;;;;;1552714;75;1697;-62
2021/01/26 10:57:23;;;;;;;;;;;23.20;28.80;;;;;;1555481;76;1102;-61
2021/01/26 10:59:25;;;;;;;;;;;23.10;28.60;;;;;;1539011;75;721;-61
2021/01/26 11:01:27;;;;;;;;;;;23.10;28.30;;;;;;1532142;76;822;-61
2021/01/26 11:03:29;;;;;;;;;;;23.10;28.10;;;;;;1528576;76;717;-61
2021/01/26 11:05:31;;;;;;;;;;;23.10;27.90;;;;;;1547791;75;1958;-62
2021/01/26 11:07:32;;;;;;;;;;;23.10;27.70;;;;;;1549009;75;1180;-61
2021/01/26 11:09:34;;;;;;;;;;;23.00;27.30;;;;;;1508996;78;730;-61
2021/01/26 11:11:36;;;;;;;;;;;23.00;27.20;;;;;;1555985;75;714;-60
2021/01/26 11:13:38;;;;;;;;;;;23.10;27.10;;;;;;1521831;76;677;-59
2021/01/26 11:15:40;;;;;;;;;;;22.90;26.60;;;;;;1547663;75;703;-61
2021/01/26 11:17:42;;;;;;;;;;;22.90;26.60;;;;;;1530770;76;1187;-61
2021/01/26 11:19:50;;;;;;;;;;;22.80;26.20;;;;;;1528604;77;744;-62
2021/01/26 11:21:51;;;;;;;;;;;22.80;26.00;;;;;;1513245;78;639;-62
2021/01/26 11:23:54;;;;;;;;;;;22.80;26.00;;;;;;1547194;75;773;-61
2021/01/26 11:25:56;;;;;;;;;;;22.70;25.40;;;;;;1527543;76;1931;-62
2021/01/26 11:27:58;;;;;;;;;;;22.70;25.80;;;;;;1542602;75;1157;-61
2021/01/26 11:29:59;;;;;;;;;;;22.50;25.60;;;;;;1551454;75;706;-61
2021/01/26 11:32:02;;;;;;;;;;;22.50;25.50;;;;;;1525265;76;918;-61
2021/01/26 11:34:04;;;;;;;;;;;22.50;25.40;;;;;;1547801;75;732;-62
2021/01/26 11:36:06;;;;;;;;;;;22.40;25.10;;;;;;1557347;75;769;-61
2021/01/26 11:38:08;;;;;;;;;;;22.50;25.20;;;;;;1543184;75;1103;-60
2021/01/26 11:40:10;;;;;;;;;;;22.40;25.10;;;;;;1541019;76;699;-61
2021/01/26 11:42:12;;;;;;;;;;;22.40;25.10;;;;;;1509856;77;969;-61
2021/01/26 11:44:13;;;;;;;;;;;22.30;25.00;;;;;;1556365;75;764;-61
2021/01/26 11:46:15;;;;;;;;;;;22.30;24.90;;;;;;1558040;75;663;-61
2021/01/26 11:48:18;;;;;;;;;;;22.20;24.80;;;;;;1513044;77;1134;-61
2021/01/26 11:50:20;;;;;;;;;;;22.20;24.70;;;;;;1555876;75;813;-61
2021/01/26 11:52:22;;;;;;;;;;;22.10;24.70;;;;;;1559083;75;689;-61
2021/01/26 11:54:23;;;;;;;;;;;22.10;24.80;;;;;;1549178;75;945;-61
2021/01/26 11:56:26;;;;;;;;;;;22.00;25.90;;;;;;1551573;75;700;-61
2021/01/26 11:58:28;;;;;;;;;;;22.10;27.20;;;;;;1508628;77;1136;-62
2021/01/26 12:00:31;;;;;;;;;;;22.10;27.30;;;;;;1528167;76;805;-61
2021/01/26 12:02:32;;;;;;;;;;;22.10;27.70;;;;;;1502534;77;778;-62
2021/01/26 12:04:34;;;;;;;;;;;22.10;28.00;;;;;;1544757;75;1946;-62
2021/01/26 12:06:36;;;;;;;;;;;22.20;28.20;;;;;;1547144;76;802;-61
2021/01/26 12:08:38;;;;;;;;;;;22.20;28.30;;;;;;1502319;77;1151;-61
2021/01/26 12:10:40;;;;;;;;;;;22.30;28.60;;;;;;1544400;75;633;-61
2021/01/26 12:12:42;;;;;;;;;;;22.30;28.90;;;;;;1528726;77;709;-61
2021/01/26 12:14:44;;;;;;;;;;;22.30;29.20;;;;;;1508038;77;617;-62
2021/01/26 12:16:46;;;;;;;;;;;22.20;29.40;;;;;;1528005;76;806;-61
2021/01/26 12:18:48;;;;;;;;;;;22.30;29.80;;;;;;1512422;77;1162;-61
2021/01/26 12:20:50;;;;;;;;;;;22.20;29.80;;;;;;1550537;75;679;-61
2021/01/26 12:22:53;;;;;;;;;;;22.30;30.20;;;;;;1552144;75;669;-61
2021/01/26 12:24:55;;;;;;;;;;;22.20;30.20;;;;;;1533831;76;1915;-61
2021/01/26 12:26:56;;;;;;;;;;;22.20;30.50;;;;;;1535635;76;707;-59